createdAt,value
2019-02-06T00:01:33.376Z,65.97
2019-02-06T00:04:04.912Z,60.38
2019-02-06T00:06:36.951Z,63.27
2019-02-06T00:09:16.969Z,64.87
2019-02-06T00:11:48.741Z,63.07
2019-02-06T00:14:20.474Z,60.88
2019-02-06T00:17:03.800Z,63.50
2019-02-06T00:19:35.601Z,64.15
2019-02-06T00:22:09.458Z,64.50
2019-02-06T00:24:41.115Z,64.17
2019-02-06T00:27:12.748Z,65.27
2019-02-06T00:29:44.785Z,65.13
2019-02-06T00:32:16.443Z,66.90
2019-02-06T00:34:49.033Z,66.22
2019-02-06T00:37:20.981Z,64.05
2019-02-06T00:40:03.843Z,65.72
2019-02-06T00:42:35.439Z,66.20
2019-02-06T00:45:07.732Z,65.22
2019-02-06T00:47:39.430Z,66.45
2019-02-06T00:50:12.310Z,66.28
2019-02-06T00:52:44.264Z,65.75
2019-02-06T00:55:15.888Z,63.13
2019-02-06T00:57:47.597Z,64.87
2019-02-06T01:00:22.978Z,64.07
2019-02-06T01:03:05.975Z,67.12
2019-02-06T01:05:38.714Z,66.57
2019-02-06T01:08:10.744Z,71.55
2019-02-06T01:10:53.374Z,70.00
2019-02-06T01:13:25.473Z,73.00
2019-02-06T01:15:57.308Z,68.67
2019-02-06T01:18:28.996Z,72.50
2019-02-06T01:21:01.598Z,69.75
2019-02-06T01:23:33.330Z,70.75
2019-02-06T01:26:05.507Z,70.40
2019-02-06T01:28:37.307Z,81.57
2019-02-06T01:31:16.480Z,71.28
2019-02-06T01:33:48.952Z,95.90
2019-02-06T01:36:20.439Z,68.50
2019-02-06T01:38:52.109Z,89.67
2019-02-06T01:41:23.820Z,85.50
2019-02-06T01:43:55.451Z,105.97
2019-02-06T01:46:26.969Z,178.47
2019-02-06T01:48:59.516Z,161.25
2019-02-06T01:51:31.141Z,136.50
2019-02-06T01:54:02.484Z,134.40
2019-02-06T01:56:34.031Z,132.00
2019-02-06T01:59:06.638Z,127.13
2019-02-06T02:01:38.309Z,96.53
2019-02-06T02:04:11.816Z,81.85
2019-02-06T02:06:43.577Z,71.00
2019-02-06T02:09:24.066Z,67.23
2019-02-06T02:11:55.616Z,71.80
2019-02-06T02:14:27.641Z,83.40
2019-02-06T02:16:59.254Z,73.47
2019-02-06T02:19:30.902Z,69.73
2019-02-06T02:22:02.561Z,72.65
2019-02-06T02:24:34.378Z,73.10
2019-02-06T02:27:06.488Z,67.70
2019-02-06T02:29:38.161Z,65.10
2019-02-06T02:32:09.583Z,61.00
2019-02-06T02:34:41.132Z,59.60
2019-02-06T02:37:13.833Z,60.78
2019-02-06T02:39:45.909Z,67.80
2019-02-06T02:42:18.141Z,59.63
2019-02-06T02:44:49.802Z,54.95
2019-02-06T02:47:21.479Z,54.00
2019-02-06T02:49:53.532Z,57.50
2019-02-06T02:52:25.494Z,55.63
2019-02-06T02:54:56.975Z,56.47
2019-02-06T02:57:28.628Z,58.37
2019-02-06T03:00:00.498Z,58.63
2019-02-06T03:02:40.409Z,56.67
2019-02-06T03:05:15.226Z,57.67
2019-02-06T03:07:46.853Z,58.23
2019-02-06T03:10:28.993Z,61.23
2019-02-06T03:13:00.708Z,61.17
2019-02-06T03:15:32.409Z,69.43
2019-02-06T03:18:03.979Z,65.25
2019-02-06T03:20:35.510Z,66.73
2019-02-06T03:23:07.996Z,64.15
2019-02-06T03:25:39.628Z,61.77
2019-02-06T03:28:11.121Z,64.05
2019-02-06T03:30:42.637Z,62.27
2019-02-06T03:33:14.233Z,64.40
2019-02-06T03:35:46.246Z,66.00
2019-02-06T03:38:18.237Z,66.77
2019-02-06T03:40:49.697Z,69.87
2019-02-06T03:43:21.213Z,68.67
2019-02-06T03:45:52.799Z,74.97
2019-02-06T03:48:25.490Z,77.20
2019-02-06T03:50:57.458Z,86.50
2019-02-06T03:53:30.174Z,147.23
2019-02-06T03:56:02.043Z,139.23
2019-02-06T03:58:33.615Z,124.33
2019-02-06T04:01:05.146Z,112.17
2019-02-06T04:03:36.948Z,82.27
2019-02-06T04:06:08.711Z,61.37
2019-02-06T04:08:40.395Z,58.05
2019-02-06T04:11:12.143Z,55.17
2019-02-06T04:13:44.918Z,56.30
2019-02-06T04:16:16.761Z,54.43
2019-02-06T04:18:49.516Z,52.00
2019-02-06T04:21:22.780Z,52.90
2019-02-06T04:23:55.385Z,50.23
2019-02-06T04:26:27.397Z,50.27
2019-02-06T04:29:00.194Z,47.83
2019-02-06T04:31:33.402Z,47.17
2019-02-06T04:34:07.081Z,47.63
2019-02-06T04:36:40.078Z,47.30
2019-02-06T04:39:13.617Z,46.10
2019-02-06T04:41:46.178Z,47.37
2019-02-06T04:44:18.837Z,45.93
2019-02-06T04:46:54.900Z,50.20
2019-02-06T04:49:27.863Z,45.80
2019-02-06T04:52:00.051Z,46.87
2019-02-06T04:54:32.065Z,45.65
2019-02-06T04:57:03.733Z,48.43
2019-02-06T04:59:35.247Z,48.42
2019-02-06T05:02:07.035Z,49.55
2019-02-06T05:04:38.840Z,47.10
2019-02-06T05:07:18.743Z,46.77
2019-02-06T05:09:44.104Z,46.80
2019-02-06T05:12:16.565Z,45.80
2019-02-06T05:14:48.180Z,45.43
2019-02-06T05:17:19.691Z,44.57
2019-02-06T05:19:51.291Z,60.77
2019-02-06T05:25:59.669Z,46.77
2019-02-06T05:28:31.524Z,43.23
2019-02-06T05:31:03.056Z,45.23
2019-02-06T05:33:34.920Z,41.33
2019-02-06T05:36:06.680Z,41.68
2019-02-06T05:38:40.113Z,42.87
2019-02-06T05:41:11.621Z,43.33
2019-02-06T05:43:43.420Z,48.75
2019-02-06T05:46:15.412Z,42.40
2019-02-06T05:48:49.425Z,41.05
2019-02-06T05:51:21.208Z,41.17
2019-02-06T05:53:54.186Z,40.03
2019-02-06T05:56:28.345Z,39.23
2019-02-06T05:59:00.314Z,39.20
2019-02-06T06:01:32.052Z,38.17
2019-02-06T06:04:04.138Z,35.92
2019-02-06T06:06:37.007Z,37.08
2019-02-06T06:09:09.823Z,37.58
2019-02-06T06:11:41.372Z,36.00
2019-02-06T06:14:13.267Z,36.28
2019-02-06T06:16:45.929Z,36.77
2019-02-06T06:19:17.505Z,33.55
2019-02-06T06:21:49.387Z,34.80
2019-02-06T06:24:21.496Z,33.55
2019-02-06T06:26:53.078Z,31.82
2019-02-06T06:29:43.525Z,33.35
2019-02-06T06:32:15.264Z,33.13
2019-02-06T06:34:47.206Z,32.45
2019-02-06T06:37:18.741Z,34.70
2019-02-06T06:39:50.475Z,34.63
2019-02-06T06:42:24.183Z,34.07
2019-02-06T06:44:55.823Z,33.90
2019-02-06T06:47:27.798Z,31.95
2019-02-06T06:50:00.585Z,31.97
2019-02-06T06:52:34.223Z,31.55
2019-02-06T06:55:07.055Z,32.42
2019-02-06T06:57:39.770Z,31.87
2019-02-06T07:00:18.434Z,32.93
2019-02-06T07:02:52.227Z,33.83
2019-02-06T07:05:24.690Z,33.53
2019-02-06T07:08:08.795Z,35.58
2019-02-06T07:10:32.103Z,36.57
2019-02-06T07:13:04.318Z,36.00
2019-02-06T07:15:37.709Z,35.10
2019-02-06T07:18:09.263Z,36.63
2019-02-06T07:20:40.898Z,36.38
2019-02-06T07:23:12.863Z,34.77
2019-02-06T07:25:44.561Z,36.47
2019-02-06T07:28:16.205Z,35.07
2019-02-06T07:30:47.916Z,36.53
2019-02-06T07:33:19.624Z,34.67
2019-02-06T07:35:51.277Z,33.63
2019-02-06T07:38:24.574Z,36.73
2019-02-06T07:40:55.948Z,38.37
2019-02-06T07:43:27.649Z,38.53
2019-02-06T07:45:59.594Z,40.40
2019-02-06T07:48:31.410Z,42.00
2019-02-06T07:51:02.968Z,41.90
2019-02-06T07:53:34.784Z,34.93
2019-02-06T07:56:06.408Z,28.83
2019-02-06T07:58:38.114Z,25.60
2019-02-06T08:01:10.843Z,23.53
2019-02-06T08:03:42.539Z,19.17
2019-02-06T08:06:14.227Z,18.80
2019-02-06T08:08:46.013Z,18.67
2019-02-06T08:11:17.630Z,17.70
2019-02-06T08:13:49.350Z,18.13
2019-02-06T08:16:22.057Z,19.00
2019-02-06T08:18:54.162Z,22.80
2019-02-06T08:21:25.891Z,21.03
2019-02-06T08:23:58.378Z,17.87
2019-02-06T08:26:30.207Z,12.90
2019-02-06T08:29:02.444Z,14.73
2019-02-06T08:31:34.673Z,20.60
2019-02-06T08:34:06.353Z,26.03
2019-02-06T08:36:38.003Z,32.77
2019-02-06T08:39:11.513Z,31.57
2019-02-06T08:41:43.495Z,30.50
2019-02-06T08:44:15.281Z,33.67
2019-02-06T08:46:47.548Z,51.60
2019-02-06T08:49:19.995Z,53.73
2019-02-06T08:51:59.462Z,56.10
2019-02-06T08:54:32.802Z,55.27
2019-02-06T08:57:04.317Z,51.17
2019-02-06T08:59:36.356Z,47.77
2019-02-06T09:02:08.194Z,49.67
2019-02-06T09:04:40.350Z,52.93
2019-02-06T09:07:11.957Z,54.47
2019-02-06T09:09:43.719Z,53.63
2019-02-06T09:12:15.605Z,66.53
2019-02-06T09:14:47.267Z,58.90
2019-02-06T09:17:18.872Z,50.43
2019-02-06T09:19:50.446Z,66.40
2019-02-06T09:22:22.113Z,60.07
2019-02-06T09:24:53.839Z,62.87
2019-02-06T09:27:25.819Z,41.17
2019-02-06T09:29:57.818Z,38.13
2019-02-06T09:32:29.590Z,35.10
2019-02-06T09:35:01.323Z,34.67
2019-02-06T09:37:33.252Z,37.83
2019-02-06T09:40:05.725Z,36.23
2019-02-06T09:42:37.191Z,26.13
2019-02-06T09:45:10.368Z,27.37
2019-02-06T09:47:41.938Z,26.33
2019-02-06T09:50:24.977Z,24.80
2019-02-06T09:52:56.650Z,22.97
2019-02-06T09:55:28.509Z,21.03
2019-02-06T09:58:00.223Z,18.90
2019-02-06T10:00:34.034Z,17.03
2019-02-06T10:03:06.197Z,14.60
2019-02-06T10:05:38.088Z,15.30
2019-02-06T10:08:11.098Z,15.37
2019-02-06T10:10:42.926Z,13.90
2019-02-06T10:13:16.458Z,14.33
2019-02-06T10:15:49.762Z,19.93
2019-02-06T10:18:21.437Z,20.57
2019-02-06T10:20:53.678Z,16.83
2019-02-06T10:23:25.337Z,18.13
2019-02-06T10:25:57.234Z,19.33
2019-02-06T10:28:29.212Z,16.70
2019-02-06T10:31:00.995Z,17.07
2019-02-06T10:33:33.184Z,18.37
2019-02-06T10:36:06.115Z,20.97
2019-02-06T10:38:37.856Z,17.17
2019-02-06T10:41:09.370Z,16.00
2019-02-06T10:43:41.177Z,16.23
2019-02-06T10:46:14.044Z,23.97
2019-02-06T10:48:45.577Z,17.43
2019-02-06T10:51:17.434Z,17.20
2019-02-06T10:53:49.160Z,15.80
2019-02-06T10:56:20.823Z,15.83
2019-02-06T10:58:53.406Z,14.57
2019-02-06T11:01:25.518Z,17.07
2019-02-06T11:03:58.212Z,17.10
2019-02-06T11:06:29.608Z,16.20
2019-02-06T11:09:01.369Z,20.10
2019-02-06T11:14:15.888Z,15.77
2019-02-06T11:16:47.941Z,16.60
2019-02-06T11:19:19.426Z,16.80
2019-02-06T11:21:51.184Z,19.83
2019-02-06T11:24:22.828Z,26.27
2019-02-06T11:26:54.427Z,24.77
2019-02-06T11:29:26.487Z,17.57
2019-02-06T11:31:57.897Z,19.73
2019-02-06T11:34:29.511Z,22.30
2019-02-06T11:37:01.182Z,25.60
2019-02-06T11:39:32.901Z,24.57
2019-02-06T11:42:05.232Z,18.57
2019-02-06T11:44:37.051Z,19.37
2019-02-06T11:47:09.603Z,20.87
2019-02-06T11:50:01.913Z,24.87
2019-02-06T11:52:33.612Z,27.43
2019-02-06T11:55:08.500Z,27.33
2019-02-06T11:57:39.117Z,30.60
2019-02-06T12:00:14.826Z,24.97
2019-02-06T12:02:46.867Z,26.30
2019-02-06T12:05:18.869Z,24.00
2019-02-06T12:07:51.098Z,35.07
2019-02-06T12:10:23.784Z,27.60
2019-02-06T12:12:55.445Z,35.60
2019-02-06T12:15:27.401Z,25.10
2019-02-06T12:17:59.430Z,25.10
2019-02-06T12:20:31.215Z,26.80
2019-02-06T12:23:03.050Z,26.63
2019-02-06T12:25:34.737Z,26.27
2019-02-06T12:28:07.729Z,29.33
2019-02-06T12:30:39.390Z,28.60
2019-02-06T12:33:10.956Z,30.70
2019-02-06T12:35:42.470Z,30.87
2019-02-06T12:38:14.182Z,29.83
2019-02-06T12:40:45.775Z,28.20
2019-02-06T12:43:17.440Z,28.17
2019-02-06T12:45:49.095Z,28.80
2019-02-06T12:48:20.657Z,28.30
2019-02-06T12:50:52.073Z,27.43
2019-02-06T12:53:24.052Z,30.90
2019-02-06T12:55:56.140Z,30.20
2019-02-06T12:58:29.441Z,33.23
2019-02-06T13:01:01.758Z,33.60
2019-02-06T13:03:33.434Z,41.90
2019-02-06T13:06:05.576Z,46.83
2019-02-06T13:08:37.255Z,49.53
2019-02-06T13:11:08.992Z,48.37
2019-02-06T13:13:45.025Z,53.87
2019-02-06T13:16:16.369Z,44.70
2019-02-06T13:18:49.903Z,36.00
2019-02-06T13:21:22.821Z,36.67
2019-02-06T13:23:54.762Z,39.03
2019-02-06T13:26:28.648Z,37.07
2019-02-06T13:29:01.373Z,40.67
2019-02-06T13:31:34.702Z,41.23
2019-02-06T13:34:06.741Z,44.23
2019-02-06T13:36:38.870Z,41.83
2019-02-06T13:39:12.253Z,36.33
2019-02-06T13:41:44.122Z,36.17
2019-02-06T13:44:15.995Z,34.77
2019-02-06T13:46:53.182Z,29.93
2019-02-06T13:49:21.233Z,27.60
2019-02-06T13:51:53.172Z,29.60
2019-02-06T13:54:24.875Z,35.73
2019-02-06T13:56:56.463Z,35.90
2019-02-06T13:59:27.986Z,35.53
2019-02-06T14:01:59.555Z,38.10
2019-02-06T14:04:31.562Z,30.83
2019-02-06T14:07:03.828Z,26.27
2019-02-06T14:09:35.864Z,28.50
2019-02-06T14:12:07.603Z,33.17
2019-02-06T14:14:40.339Z,31.23
2019-02-06T14:17:12.242Z,34.20
2019-02-06T14:19:48.334Z,27.93
2019-02-06T14:22:21.424Z,25.53
2019-02-06T14:24:57.544Z,30.00
2019-02-06T14:28:00.389Z,34.47
2019-02-06T14:31:03.679Z,34.23
2019-02-06T14:33:53.010Z,34.43
2019-02-06T14:36:52.152Z,34.83
2019-02-06T14:40:13.030Z,34.93
2019-02-06T14:43:28.150Z,40.37
2019-02-06T14:46:42.306Z,38.87
2019-02-06T14:49:39.435Z,38.87
2019-02-06T14:52:45.984Z,38.13
2019-02-06T14:56:16.405Z,39.17
2019-02-06T14:59:24.260Z,35.77
2019-02-06T15:02:35.452Z,34.47
2019-02-06T15:05:52.205Z,33.80
2019-02-06T15:09:09.999Z,38.23
2019-02-06T15:12:18.679Z,41.03
2019-02-06T15:15:03.543Z,34.77
2019-02-06T15:18:12.307Z,32.83
2019-02-06T15:21:21.320Z,33.80
2019-02-06T15:24:32.766Z,35.70
2019-02-06T15:27:50.206Z,32.93
2019-02-06T15:30:41.981Z,34.23
2019-02-06T15:33:53.591Z,35.43
2019-02-06T15:37:02.093Z,36.93
2019-02-06T15:40:02.669Z,33.47
2019-02-06T15:42:49.498Z,38.60
2019-02-06T15:46:08.844Z,44.90
2019-02-06T15:49:32.004Z,40.53
2019-02-06T15:52:23.311Z,35.27
2019-02-06T15:55:42.880Z,37.27
2019-02-06T15:58:50.695Z,41.97
2019-02-06T16:01:59.780Z,39.73
2019-02-06T16:05:11.895Z,43.67
2019-02-06T16:07:56.278Z,43.33
2019-02-06T16:11:10.233Z,42.00
2019-02-06T16:14:28.572Z,48.00
2019-02-06T16:17:29.309Z,44.60
2019-02-06T16:20:28.044Z,41.20
2019-02-06T16:23:55.354Z,43.57
2019-02-06T16:27:32.238Z,42.80
2019-02-06T16:30:40.169Z,40.47
2019-02-06T16:33:44.751Z,44.17
2019-02-06T16:36:56.100Z,43.40
2019-02-06T16:39:58.588Z,45.30
2019-02-06T16:42:58.983Z,45.07
2019-02-06T16:46:08.699Z,40.97
2019-02-06T16:49:23.944Z,42.70
2019-02-06T16:52:25.731Z,47.43
2019-02-06T16:55:35.555Z,45.20
2019-02-06T16:59:09.078Z,48.20
2019-02-06T17:02:40.119Z,44.33
2019-02-06T17:05:34.919Z,43.00
2019-02-06T17:08:48.696Z,39.03
2019-02-06T17:16:25.596Z,43.63
2019-02-06T17:19:40.544Z,45.77
2019-02-06T17:22:58.542Z,45.33
2019-02-06T17:26:25.558Z,44.30
2019-02-06T17:29:32.444Z,45.77
2019-02-06T17:32:31.307Z,48.83
2019-02-06T17:35:12.667Z,43.73
2019-02-06T17:38:33.729Z,45.77
2019-02-06T17:41:16.579Z,45.17
2019-02-06T17:44:15.895Z,43.63
2019-02-06T17:47:25.544Z,45.03
2019-02-06T17:50:56.403Z,45.73
2019-02-06T17:53:49.733Z,52.57
2019-02-06T17:56:21.936Z,56.73
2019-02-06T17:58:54.603Z,53.80
2019-02-06T18:01:34.112Z,54.07
2019-02-06T18:04:21.599Z,50.27
2019-02-06T18:06:54.887Z,45.87
2019-02-06T18:09:26.531Z,43.90
2019-02-06T18:12:00.994Z,51.07
2019-02-06T18:14:34.064Z,47.10
2019-02-06T18:17:07.263Z,42.00
2019-02-06T18:19:41.058Z,40.50
2019-02-06T18:22:13.420Z,41.93
2019-02-06T18:24:45.096Z,45.23
2019-02-06T18:27:17.012Z,48.27
2019-02-06T18:29:48.873Z,47.13
2019-02-06T18:32:20.773Z,50.07
2019-02-06T18:34:52.451Z,46.77
2019-02-06T18:37:24.070Z,44.77
2019-02-06T18:39:56.494Z,39.93
2019-02-06T18:42:36.792Z,50.40
2019-02-06T18:45:01.722Z,56.27
2019-02-06T18:47:34.387Z,59.70
2019-02-06T18:50:08.000Z,48.20
2019-02-06T18:52:39.373Z,37.57
2019-02-06T18:55:11.341Z,42.70
2019-02-06T18:57:42.781Z,42.50
2019-02-06T19:00:18.363Z,40.83
2019-02-06T19:02:50.288Z,38.77
2019-02-06T19:05:23.541Z,41.53
2019-02-06T19:07:55.141Z,39.33
2019-02-06T19:10:27.915Z,37.47
2019-02-06T19:13:00.839Z,36.23
2019-02-06T19:15:33.296Z,36.47
2019-02-06T19:18:09.628Z,39.10
2019-02-06T19:20:41.759Z,38.20
2019-02-06T19:23:13.562Z,36.63
2019-02-06T19:25:45.435Z,37.00
2019-02-06T19:28:18.741Z,54.07
2019-02-06T19:30:50.414Z,62.47
2019-02-06T19:33:23.073Z,49.40
2019-02-06T19:35:56.007Z,46.40
2019-02-06T19:38:28.591Z,43.43
2019-02-06T19:41:00.711Z,46.23
2019-02-06T19:43:32.629Z,44.10
2019-02-06T19:46:04.877Z,41.20
2019-02-06T19:48:38.205Z,40.33
2019-02-06T19:51:11.097Z,40.37
2019-02-06T19:53:43.866Z,39.97
2019-02-06T19:56:16.522Z,40.10
2019-02-06T19:58:49.429Z,36.43
2019-02-06T20:01:21.630Z,32.60
2019-02-06T20:03:53.215Z,30.43
2019-02-06T20:06:31.526Z,30.60
2019-02-06T20:09:10.871Z,33.37
2019-02-06T20:11:42.461Z,31.93
2019-02-06T20:14:13.807Z,32.30
2019-02-06T20:16:45.529Z,31.47
2019-02-06T20:19:17.177Z,33.70
2019-02-06T20:21:48.943Z,32.77
2019-02-06T20:24:21.312Z,37.17
2019-02-06T20:26:53.122Z,38.77
2019-02-06T20:29:24.640Z,41.53
2019-02-06T20:31:56.825Z,44.13
2019-02-06T20:34:28.760Z,44.33
2019-02-06T20:37:00.506Z,43.27
2019-02-06T20:39:33.332Z,43.80
2019-02-06T20:42:05.808Z,41.23
2019-02-06T20:44:37.169Z,44.30
2019-02-06T20:47:27.459Z,50.57
2019-02-06T20:49:58.948Z,48.10
2019-02-06T20:52:30.542Z,51.37
2019-02-06T20:55:02.661Z,52.10
2019-02-06T20:57:36.020Z,51.97
2019-02-06T21:00:10.171Z,52.00
2019-02-06T21:02:41.852Z,50.23
2019-02-06T21:05:14.060Z,48.30
2019-02-06T21:07:46.390Z,48.33
2019-02-06T21:10:20.221Z,50.60
2019-02-06T21:12:51.964Z,47.67
2019-02-06T21:15:23.886Z,47.13
2019-02-06T21:17:55.465Z,46.83
2019-02-06T21:20:27.057Z,47.70
2019-02-06T21:22:58.795Z,46.13
2019-02-06T21:25:42.628Z,46.63
2019-02-06T21:28:14.204Z,45.33
2019-02-06T21:30:46.999Z,45.03
2019-02-06T21:33:20.062Z,46.67
2019-02-06T21:35:52.076Z,47.73
2019-02-06T21:38:24.556Z,48.53
2019-02-06T21:40:56.992Z,47.93
2019-02-06T21:43:29.097Z,48.07
2019-02-06T21:46:02.061Z,49.07
2019-02-06T21:48:35.076Z,48.10
2019-02-06T21:51:07.468Z,48.53
2019-02-06T21:53:39.771Z,53.23
2019-02-06T21:56:23.004Z,55.50
2019-02-06T21:58:55.283Z,61.03
2019-02-06T22:01:28.182Z,64.93
2019-02-06T22:03:59.824Z,61.80
2019-02-06T22:06:31.492Z,72.77
2019-02-06T22:09:03.858Z,55.47
2019-02-06T22:11:36.524Z,54.10
2019-02-06T22:14:08.123Z,52.40
2019-02-06T22:16:39.579Z,53.10
2019-02-06T22:19:11.359Z,50.17
2019-02-06T22:21:42.951Z,46.00
2019-02-06T22:24:14.690Z,45.43
2019-02-06T22:26:46.224Z,43.10
2019-02-06T22:29:17.820Z,35.10
2019-02-06T22:31:50.445Z,30.40
2019-02-06T22:34:21.967Z,27.80
2019-02-06T22:36:54.222Z,26.67
2019-02-06T22:39:26.025Z,25.53
2019-02-06T22:41:57.610Z,27.10
2019-02-06T22:44:29.290Z,27.87
2019-02-06T22:47:12.485Z,30.07
2019-02-06T22:49:44.092Z,35.50
2019-02-06T22:52:16.118Z,48.50
2019-02-06T22:54:47.836Z,59.13
2019-02-06T22:57:19.748Z,49.53
2019-02-06T22:59:51.373Z,35.93
2019-02-06T23:02:23.145Z,35.47
2019-02-06T23:04:54.750Z,35.40
2019-02-06T23:07:26.385Z,35.50
2019-02-06T23:09:58.291Z,37.17
2019-02-06T23:12:31.109Z,36.87
2019-02-06T23:15:02.905Z,36.43
2019-02-06T23:17:35.755Z,34.97
2019-02-06T23:20:07.848Z,34.43
2019-02-06T23:22:39.822Z,35.57
2019-02-06T23:25:12.007Z,37.23
2019-02-06T23:27:44.564Z,35.43
2019-02-06T23:30:16.713Z,36.37
2019-02-06T23:32:48.808Z,37.80
2019-02-06T23:35:20.621Z,34.77
2019-02-06T23:37:52.478Z,30.77
2019-02-06T23:40:23.974Z,31.43
2019-02-06T23:42:55.435Z,33.77
2019-02-06T23:45:27.462Z,29.93
2019-02-06T23:47:59.172Z,29.07
2019-02-06T23:50:30.776Z,27.20
2019-02-06T23:53:02.349Z,27.70
2019-02-06T23:55:33.923Z,27.20
2019-02-06T23:58:05.737Z,30.10
